<?xml version="1.0" encoding="UTF-8" standalone="no" ?>
<gpx xmlns="http://www.topografix.com/GPX/1/1" xmlns:xsi="http://www.w3.org/2001/XMLSchema-instance" xsi:schemaLocation="http://www.topografix.com/GPX/1/1 http://www.topografix.com/GPX/1/1/gpx.xsd" version="1.1" creator="VisuGPX - https://www.visugpx.com">
  <metadata>
    <name>Vecmont étang</name>
    <desc><![CDATA[Rando, en passant par Blangy-Tronville, Glisy, et en suivant les méandres de la Somme.]]></desc>
  </metadata>
  <trk>
    <name><![CDATA[OR-7978852--Glisy:Vecmont]]></name>
    <trkseg>
      <trkpt lat="49.87997" lon="2.39709">
        <ele>28</ele>
        <time>2017-10-05T00:07:27Z</time>
      </trkpt>
      <trkpt lat="49.88004" lon="2.39748">
        <ele>26</ele>
        <time>2017-10-05T00:09:27Z</time>
      </trkpt>
      <trkpt lat="49.88051" lon="2.39728">
        <ele>26</ele>
        <time>2017-10-05T00:11:27Z</time>
      </trkpt>
      <trkpt lat="49.88209" lon="2.39722">
        <ele>24</ele>
        <time>2017-10-05T00:13:27Z</time>
      </trkpt>
      <trkpt lat="49.88331" lon="2.39729">
        <ele>23</ele>
        <time>2017-10-05T00:15:27Z</time>
      </trkpt>
      <trkpt lat="49.88414" lon="2.39745">
        <ele>25</ele>
        <time>2017-10-05T00:17:27Z</time>
      </trkpt>
      <trkpt lat="49.88432" lon="2.39741">
        <ele>26</ele>
        <time>2017-10-05T00:19:27Z</time>
      </trkpt>
      <trkpt lat="49.88451" lon="2.39997">
        <ele>25</ele>
        <time>2017-10-05T00:21:27Z</time>
      </trkpt>
      <trkpt lat="49.88489" lon="2.40518">
        <ele>27</ele>
        <time>2017-10-05T00:23:27Z</time>
      </trkpt>
      <trkpt lat="49.88525" lon="2.40898">
        <ele>26</ele>
        <time>2017-10-05T00:25:27Z</time>
      </trkpt>
      <trkpt lat="49.88528" lon="2.40969">
        <ele>26</ele>
        <time>2017-10-05T00:27:27Z</time>
      </trkpt>
      <trkpt lat="49.88541" lon="2.41109">
        <ele>28</ele>
        <time>2017-10-05T00:29:27Z</time>
      </trkpt>
      <trkpt lat="49.88538" lon="2.41202">
        <ele>28</ele>
        <time>2017-10-05T00:31:27Z</time>
      </trkpt>
      <trkpt lat="49.88542" lon="2.41269">
        <ele>27</ele>
        <time>2017-10-05T00:33:27Z</time>
      </trkpt>
      <trkpt lat="49.88538" lon="2.41303">
        <ele>26</ele>
        <time>2017-10-05T00:35:27Z</time>
      </trkpt>
      <trkpt lat="49.88506" lon="2.41401">
        <ele>26</ele>
        <time>2017-10-05T00:37:27Z</time>
      </trkpt>
      <trkpt lat="49.88501" lon="2.41439">
        <ele>26</ele>
        <time>2017-10-05T00:39:27Z</time>
      </trkpt>
      <trkpt lat="49.88527" lon="2.41711">
        <ele>26</ele>
        <time>2017-10-05T00:41:27Z</time>
      </trkpt>
      <trkpt lat="49.88527" lon="2.4176">
        <ele>26</ele>
        <time>2017-10-05T00:43:27Z</time>
      </trkpt>
      <trkpt lat="49.88513" lon="2.41824">
        <ele>26</ele>
        <time>2017-10-05T00:45:27Z</time>
      </trkpt>
      <trkpt lat="49.88478" lon="2.41949">
        <ele>26</ele>
        <time>2017-10-05T00:47:27Z</time>
      </trkpt>
      <trkpt lat="49.88455" lon="2.42077">
        <ele>25</ele>
        <time>2017-10-05T00:49:27Z</time>
      </trkpt>
      <trkpt lat="49.88448" lon="2.42113">
        <ele>25</ele>
        <time>2017-10-05T00:51:27Z</time>
      </trkpt>
      <trkpt lat="49.88438" lon="2.42154">
        <ele>25</ele>
        <time>2017-10-05T00:53:27Z</time>
      </trkpt>
      <trkpt lat="49.88409" lon="2.42153">
        <ele>25</ele>
        <time>2017-10-05T00:55:27Z</time>
      </trkpt>
      <trkpt lat="49.88195" lon="2.42155">
        <ele>26</ele>
        <time>2017-10-05T00:57:27Z</time>
      </trkpt>
      <trkpt lat="49.88116" lon="2.42175">
        <ele>28</ele>
        <time>2017-10-05T00:59:27Z</time>
      </trkpt>
      <trkpt lat="49.88059" lon="2.42188">
        <ele>31</ele>
        <time>2017-10-05T01:01:27Z</time>
      </trkpt>
      <trkpt lat="49.88035" lon="2.42261">
        <ele>31</ele>
        <time>2017-10-05T01:03:27Z</time>
      </trkpt>
      <trkpt lat="49.88017" lon="2.42331">
        <ele>30</ele>
        <time>2017-10-05T01:05:27Z</time>
      </trkpt>
      <trkpt lat="49.8801" lon="2.42432">
        <ele>31</ele>
        <time>2017-10-05T01:07:27Z</time>
      </trkpt>
      <trkpt lat="49.88006" lon="2.42562">
        <ele>35</ele>
        <time>2017-10-05T01:09:27Z</time>
      </trkpt>
      <trkpt lat="49.87977" lon="2.42822">
        <ele>40</ele>
        <time>2017-10-05T01:11:27Z</time>
      </trkpt>
      <trkpt lat="49.87959" lon="2.42944">
        <ele>41</ele>
        <time>2017-10-05T01:13:27Z</time>
      </trkpt>
      <trkpt lat="49.8792" lon="2.43081">
        <ele>45</ele>
        <time>2017-10-05T01:15:27Z</time>
      </trkpt>
      <trkpt lat="49.87875" lon="2.43236">
        <ele>49</ele>
        <time>2017-10-05T01:17:27Z</time>
      </trkpt>
      <trkpt lat="49.87898" lon="2.43371">
        <ele>47</ele>
        <time>2017-10-05T01:19:27Z</time>
      </trkpt>
      <trkpt lat="49.87937" lon="2.43824">
        <ele>42</ele>
        <time>2017-10-05T01:21:27Z</time>
      </trkpt>
      <trkpt lat="49.87837" lon="2.4403">
        <ele>42</ele>
        <time>2017-10-05T01:23:27Z</time>
      </trkpt>
      <trkpt lat="49.87782" lon="2.4421">
        <ele>41</ele>
        <time>2017-10-05T01:25:27Z</time>
      </trkpt>
      <trkpt lat="49.87638" lon="2.44489">
        <ele>51</ele>
        <time>2017-10-05T01:27:27Z</time>
      </trkpt>
      <trkpt lat="49.87558" lon="2.44566">
        <ele>54</ele>
        <time>2017-10-05T01:29:27Z</time>
      </trkpt>
      <trkpt lat="49.87486" lon="2.44605">
        <ele>56</ele>
        <time>2017-10-05T01:31:27Z</time>
      </trkpt>
      <trkpt lat="49.87392" lon="2.44682">
        <ele>56</ele>
        <time>2017-10-05T01:33:27Z</time>
      </trkpt>
      <trkpt lat="49.87259" lon="2.44785">
        <ele>55</ele>
        <time>2017-10-05T01:35:27Z</time>
      </trkpt>
      <trkpt lat="49.87174" lon="2.44837">
        <ele>53</ele>
        <time>2017-10-05T01:37:27Z</time>
      </trkpt>
      <trkpt lat="49.87107" lon="2.44897">
        <ele>51</ele>
        <time>2017-10-05T01:39:27Z</time>
      </trkpt>
      <trkpt lat="49.86959" lon="2.4492">
        <ele>53</ele>
        <time>2017-10-05T01:41:27Z</time>
      </trkpt>
      <trkpt lat="49.86951" lon="2.44071">
        <ele>54</ele>
        <time>2017-10-05T01:43:27Z</time>
      </trkpt>
      <trkpt lat="49.87016" lon="2.43805">
        <ele>54</ele>
        <time>2017-10-05T01:45:27Z</time>
      </trkpt>
      <trkpt lat="49.87057" lon="2.43545">
        <ele>54</ele>
        <time>2017-10-05T01:47:27Z</time>
      </trkpt>
      <trkpt lat="49.87373" lon="2.43094">
        <ele>52</ele>
        <time>2017-10-05T01:49:27Z</time>
      </trkpt>
      <trkpt lat="49.87428" lon="2.42927">
        <ele>48</ele>
        <time>2017-10-05T01:51:27Z</time>
      </trkpt>
      <trkpt lat="49.87483" lon="2.42893">
        <ele>48</ele>
        <time>2017-10-05T01:53:27Z</time>
      </trkpt>
      <trkpt lat="49.87662" lon="2.42586">
        <ele>48</ele>
        <time>2017-10-05T01:55:27Z</time>
      </trkpt>
      <trkpt lat="49.87689" lon="2.42496">
        <ele>49</ele>
        <time>2017-10-05T01:57:27Z</time>
      </trkpt>
      <trkpt lat="49.87684" lon="2.42264">
        <ele>50</ele>
        <time>2017-10-05T01:59:27Z</time>
      </trkpt>
      <trkpt lat="49.87738" lon="2.42245">
        <ele>48</ele>
        <time>2017-10-05T02:01:27Z</time>
      </trkpt>
      <trkpt lat="49.87705" lon="2.42135">
        <ele>49</ele>
        <time>2017-10-05T02:03:27Z</time>
      </trkpt>
      <trkpt lat="49.87727" lon="2.42036">
        <ele>50</ele>
        <time>2017-10-05T02:05:27Z</time>
      </trkpt>
      <trkpt lat="49.87659" lon="2.41985">
        <ele>52</ele>
        <time>2017-10-05T02:07:27Z</time>
      </trkpt>
      <trkpt lat="49.87631" lon="2.41822">
        <ele>53</ele>
        <time>2017-10-05T02:09:27Z</time>
      </trkpt>
      <trkpt lat="49.87576" lon="2.41579">
        <ele>54</ele>
        <time>2017-10-05T02:11:27Z</time>
      </trkpt>
      <trkpt lat="49.87557" lon="2.41275">
        <ele>52</ele>
        <time>2017-10-05T02:13:27Z</time>
      </trkpt>
      <trkpt lat="49.87568" lon="2.40944">
        <ele>49</ele>
        <time>2017-10-05T02:15:27Z</time>
      </trkpt>
      <trkpt lat="49.87555" lon="2.40695">
        <ele>52</ele>
        <time>2017-10-05T02:17:27Z</time>
      </trkpt>
      <trkpt lat="49.87546" lon="2.40577">
        <ele>52</ele>
        <time>2017-10-05T02:19:27Z</time>
      </trkpt>
      <trkpt lat="49.8751" lon="2.40365">
        <ele>50</ele>
        <time>2017-10-05T02:21:27Z</time>
      </trkpt>
      <trkpt lat="49.87508" lon="2.4">
        <ele>54</ele>
        <time>2017-10-05T02:23:27Z</time>
      </trkpt>
      <trkpt lat="49.87546" lon="2.39811">
        <ele>57</ele>
        <time>2017-10-05T02:25:27Z</time>
      </trkpt>
      <trkpt lat="49.87631" lon="2.39893">
        <ele>56</ele>
        <time>2017-10-05T02:27:27Z</time>
      </trkpt>
      <trkpt lat="49.87732" lon="2.39931">
        <ele>54</ele>
        <time>2017-10-05T02:29:27Z</time>
      </trkpt>
      <trkpt lat="49.87799" lon="2.39955">
        <ele>52</ele>
        <time>2017-10-05T02:31:27Z</time>
      </trkpt>
      <trkpt lat="49.8785" lon="2.39959">
        <ele>50</ele>
        <time>2017-10-05T02:33:27Z</time>
      </trkpt>
      <trkpt lat="49.87908" lon="2.39966">
        <ele>46</ele>
        <time>2017-10-05T02:35:27Z</time>
      </trkpt>
      <trkpt lat="49.87925" lon="2.39867">
        <ele>44</ele>
        <time>2017-10-05T02:37:27Z</time>
      </trkpt>
      <trkpt lat="49.87954" lon="2.39833">
        <ele>38</ele>
        <time>2017-10-05T02:39:27Z</time>
      </trkpt>
      <trkpt lat="49.87995" lon="2.3976">
        <ele>27</ele>
        <time>2017-10-05T02:41:27Z</time>
      </trkpt>
      <trkpt lat="49.87993" lon="2.39729">
        <ele>28</ele>
        <time>2017-10-05T02:43:27Z</time>
      </trkpt>
    </trkseg>
  </trk>
</gpx>